EGEO/OBN METAR and TAF weather

Enter ICAO airport designator
Station Type Date Time Source
EGEO METAR 2021/03/01 13:50 UTC NOAA

EGEO 011350Z 10005KT CAVOK 11/02 Q1032


Station Type Date Time Source
EGEO Decoded METAR 2021/03/01 13:50 UTC NOAA

Station name not available
Mar 01, 2021 - 08:50 AM EST / 2021.03.01 1350 UTC
Wind: from the E (100 degrees) at 6 MPH (5 KT):0
Visibility: greater than 7 mile(s):0
Temperature: 51 F (11 C)
Dew Point: 35 F (2 C)
Relative Humidity: 53%
Pressure (altimeter): 30.47 in. Hg (1032 hPa)
ob: EGEO 011350Z 10005KT CAVOK 11/02 Q1032
cycle: 14

Station Type Date Time Source
EGEO TAF UTC NOAA

Error!

Example: see airport list